Data for 12/21/2017

Time Sea-Level Adjusted Pressure Absolute Pressure Temperature Relative Humidity Dew Point   
(mb) (inHg) (mb) (inHg) (C) (F) (%) (C) (F)
00:05 1021 30.15 850 25.1 -12.2 10.1 81 -14.8 5.4
00:10 1021 30.15 850 25.1 -12.3 9.9 81 -14.8 5.3
00:15 1021 30.15 850 25.1 -12.2 10 81 -14.8 5.3
00:20 1021 30.15 850 25.1 -12.2 10 81 -14.8 5.3
00:25 1021 30.15 850 25.1 -12.3 9.9 81 -14.9 5.2
00:30 1021 30.15 850 25.1 -12.4 9.7 82 -14.9 5.2
00:35 1021 30.15 850 25.1 -12.4 9.6 82 -15 5.1
00:40 1021 30.15 850 25.1 -12.5 9.6 81 -15 4.9
00:45 1021 30.15 850 25.1 -12.5 9.5 81 -15.1 4.9
00:50 1021 30.15 850 25.1 -12.5 9.5 82 -15.1 4.9
00:55 1021 30.15 850 25.1 -12.6 9.3 82 -15.1 4.9
01:00 1021 30.15 850 25.1 -12.8 9 82 -15.2 4.6
01:05 1021 30.15 850 25.1 -13 8.7 83 -15.3 4.4
01:10 1021 30.15 850 25.1 -13 8.6 84 -15.1 4.9
01:15 1021 30.15 850 25.1 -12.9 8.9 84 -15 5
01:20 1021 30.15 850 25.1 -12.9 8.8 85 -15 5.1
01:25 1021 30.15 850 25.1 -13 8.7 84 -15.1 4.9
01:30 1021 30.15 850 25.1 -13.1 8.5 84 -15.2 4.7
01:35 1021 30.15 850 25.1 -13.2 8.2 85 -15.2 4.6
01:40 1021 30.15 850 25.1 -13.3 8 85 -15.4 4.3
01:45 1021 30.15 850 25.1 -13.6 7.6 85 -15.5 4
01:50 1021 30.15 850 25.1 -13.6 7.6 85 -15.5 4
01:55 1021 30.15 850 25.1 -13.6 7.5 85 -15.6 3.9
02:00 1021 30.15 850 25.1 -13.8 7.1 84 -15.9 3.3
02:05 1021 30.15 850 25.1 -14 6.9 84 -16.2 2.9
02:10 1021 30.15 850 25.1 -14.1 6.7 87 -15.9 3.4
02:15 1021 30.15 850 25.1 -13.8 7.1 86 -15.7 3.7
02:20 1021 30.15 850 25.1 -13.8 7.1 85 -15.8 3.5
02:25 1021 30.15 850 25.1 -14 6.8 84 -16.1 3
02:30 1021 30.15 850 25.1 -14.2 6.5 85 -16.2 2.9
02:35 1021 30.15 850 25.1 -14.2 6.4 85 -16.2 2.9
02:40 1021 30.15 850 25.1 -14.4 6.1 85 -16.4 2.6
02:45 1021 30.15 850 25.1 -14.4 6.1 86 -16.2 2.8
02:50 1021 30.15 850 25.1 -14.2 6.5 86 -16.1 3.1
02:55 1021 30.15 850 25.1 -14.4 6.2 84 -16.6 2.2
03:00 1021 30.15 850 25.1 -14.9 5.3 82 -17.2 1
03:05 1021 30.15 850 25.1 -15.2 4.6 84 -17.4 0.7
03:10 1021 30.15 851 25.13 -15.1 4.7 84 -17.3 0.9
03:15 1021 30.15 851 25.13 -14.9 5.1 85 -17 1.4
03:20 1021 30.15 851 25.13 -14.7 5.5 84 -16.9 1.6
03:25 1021 30.15 851 25.13 -14.6 5.8 84 -16.7 2
03:30 1022 30.18 851 25.13 -14.2 6.5 84 -16.3 2.7
03:35 1022 30.18 851 25.13 -14.1 6.7 83 -16.4 2.5
03:40 1021 30.15 851 25.13 -14.3 6.2 84 -16.5 2.4
03:45 1021 30.15 851 25.13 -14.4 6.1 83 -16.7 1.9
03:50 1021 30.15 851 25.13 -15 5.1 80 -17.6 0.3
03:55 1021 30.15 851 25.13 -15.6 3.9 82 -18.1 -0.5
04:00 1021 30.15 851 25.13 -16 3.3 83 -18.3 -0.9
04:05 1021 30.15 851 25.13 -15.9 3.3 85 -17.9 -0.2
04:10 1021 30.15 851 25.13 -15.3 4.5 87 -17.1 1.3
04:15 1021 30.15 851 25.13 -14.8 5.3 84 -17 1.3
04:20 1021 30.15 851 25.13 -14.9 5.3 84 -16.9 1.5
04:25 1021 30.15 851 25.13 -14.7 5.5 84 -16.9 1.6
04:30 1021 30.15 851 25.13 -14.6 5.7 84 -16.8 1.7
04:35 1021 30.15 851 25.13 -14.6 5.7 83 -16.8 1.7
04:40 1021 30.15 851 25.13 -14.5 5.8 84 -16.7 1.9
04:45 1021 30.15 850 25.1 -14.5 5.9 83 -16.8 1.7
04:50 1021 30.15 850 25.1 -14.5 5.8 84 -16.7 1.9
04:55 1021 30.15 850 25.1 -14.4 6 84 -16.5 2.2
05:00 1021 30.15 850 25.1 -14.2 6.4 83 -16.4 2.4
05:05 1021 30.15 850 25.1 -14.1 6.6 84 -16.3 2.7
05:10 1021 30.15 850 25.1 -13.9 7.1 84 -16.1 3.1
05:15 1021 30.15 850 25.1 -13.8 7.2 84 -16 3.2
05:20 1021 30.15 850 25.1 -13.7 7.4 84 -15.9 3.4
05:25 1021 30.15 850 25.1 -13.5 7.7 84 -15.7 3.7
05:30 1021 30.15 850 25.1 -13.4 7.9 83 -15.6 3.9
05:35 1021 30.15 850 25.1 -13.3 8.2 83 -15.5 4.1
05:40 1021 30.15 850 25.1 -13.1 8.4 83 -15.5 4.2
05:45 1021 30.15 850 25.1 -13 8.5 83 -15.3 4.5
05:50 1021 30.15 850 25.1 -12.9 8.8 83 -15.2 4.6
05:55 1021 30.15 850 25.1 -12.8 9 83 -15.2 4.7
06:00 1021 30.15 850 25.1 -12.7 9.1 82 -15.1 4.8
06:05 1021 30.15 850 25.1 -12.6 9.3 83 -14.9 5.1
06:10 1021 30.15 850 25.1 -12.5 9.5 83 -14.8 5.3
06:15 1021 30.15 850 25.1 -12.5 9.6 83 -14.8 5.3
06:20 1021 30.15 850 25.1 -12.4 9.8 83 -14.7 5.5
06:25 1021 30.15 850 25.1 -12.2 10.1 81 -14.7 5.5
06:30 1021 30.15 850 25.1 -12.1 10.3 82 -14.6 5.7
06:35 1021 30.15 850 25.1 -12 10.4 82 -14.5 5.9
06:40 1021 30.15 850 25.1 -11.7 11 81 -14.3 6.2
06:45 1021 30.15 850 25.1 -11.5 11.3 81 -14.1 6.7
06:50 1021 30.15 850 25.1 -11.2 11.8 81 -13.9 7
06:55 1021 30.15 850 25.1 -11 12.1 81 -13.8 7.2
07:00 1021 30.15 850 25.1 -10.9 12.5 79 -13.9 7
07:05 1021 30.15 850 25.1 -10.7 12.7 78 -13.8 7.1
07:10 1021 30.15 850 25.1 -10.8 12.6 80 -13.6 7.5
07:15 1021 30.15 850 25.1 -10.7 12.8 79 -13.6 7.5
07:20 1021 30.15 850 25.1 -10.5 13.1 80 -13.3 8
07:25 1021 30.15 850 25.1 -10.5 13.2 80 -13.3 8
07:30 1021 30.15 850 25.1 -10.6 12.8 81 -13.3 8
07:35 1021 30.15 850 25.1 -10.8 12.5 81 -13.4 7.9
07:40 1021 30.15 850 25.1 -11 12.3 82 -13.5 7.7
07:45 1021 30.15 850 25.1 -11.1 12.1 83 -13.5 7.7
07:50 1021 30.15 850 25.1 -11.2 11.8 82 -13.7 7.4
07:55 1021 30.15 850 25.1 -11.3 11.6 83 -13.6 7.5
08:00 1021 30.15 850 25.1 -11.5 11.4 81 -14 6.7
08:05 1021 30.15 850 25.1 -11.8 10.8 83 -14.1 6.6
08:10 1021 30.15 851 25.13 -11.8 10.7 82 -14.2 6.4
08:15 1021 30.15 850 25.1 -11.9 10.5 82 -14.4 6
08:20 1021 30.15 850 25.1 -12.1 10.3 82 -14.5 5.8
08:25 1021 30.15 850 25.1 -12.1 10.1 83 -14.5 5.9
08:30 1021 30.15 851 25.13 -12 10.3 83 -14.4 6
08:35 1021 30.15 851 25.13 -12 10.4 83 -14.4 6.1
08:40 1021 30.15 851 25.13 -12 10.4 82 -14.4 6
08:45 1021 30.15 851 25.13 -12.1 10.3 82 -14.5 5.9
08:50 1021 30.15 851 25.13 -12 10.4 82 -14.4 6
08:55 1021 30.15 851 25.13 -12 10.4 83 -14.4 6.1
09:00 1021 30.15 851 25.13 -11.9 10.6 83 -14.3 6.3
09:05 1021 30.15 851 25.13 -11.8 10.8 82 -14.3 6.3
09:10 1022 30.18 851 25.13 -11.7 11 81 -14.3 6.3
09:15 1022 30.18 851 25.13 -11.4 11.5 81 -14 6.8
09:20 1022 30.18 851 25.13 -11.1 12.1 80 -13.8 7.1
09:25 1022 30.18 851 25.13 -11 12.1 81 -13.7 7.3
09:30 1022 30.18 851 25.13 -10.9 12.4 80 -13.7 7.3
09:35 1022 30.18 851 25.13 -10.7 12.7 80 -13.6 7.5
09:40 1022 30.18 851 25.13 -10.7 12.7 79 -13.7 7.3
09:45 1022 30.18 851 25.13 -10.6 12.9 79 -13.6 7.5
09:50 1022 30.18 851 25.13 -10.4 13.4 78 -13.6 7.6
09:55 1022 30.18 851 25.13 -10.2 13.7 76 -13.6 7.5
10:00 1022 30.18 851 25.13 -10.3 13.5 77 -13.6 7.4
10:05 1022 30.18 851 25.13 -10.2 13.7 75 -13.8 7.1
10:10 1022 30.18 851 25.13 -10.3 13.4 76 -13.7 7.3
10:15 1022 30.18 851 25.13 -10.1 13.9 75 -13.6 7.4
10:20 1022 30.18 851 25.13 -9.9 14.3 75 -13.5 7.8
10:25 1022 30.18 851 25.13 -9.6 14.7 74 -13.4 7.9
10:30 1022 30.18 851 25.13 -9.4 15 74 -13.2 8.2
10:35 1022 30.18 851 25.13 -9.1 15.7 73 -13.1 8.4
10:40 1022 30.18 851 25.13 -8.7 16.3 73 -12.7 9.1
10:45 1022 30.18 851 25.13 -8.2 17.2 71 -12.6 9.3
10:50 1022 30.18 851 25.13 -7.7 18.2 69 -12.4 9.8
10:55 1022 30.18 851 25.13 -7.3 18.9 67 -12.3 9.8
11:00 1021 30.15 851 25.13 -7 19.3 66 -12.3 9.8
11:05 1021 30.15 851 25.13 -6.9 19.5 66 -12.3 9.9
11:10 1021 30.15 850 25.1 -6.8 19.8 64 -12.4 9.6
11:15 1021 30.15 850 25.1 -6.7 20 61 -13 8.7
11:20 1021 30.15 850 25.1 -6.1 21 60 -12.7 9.1
11:25 1021 30.15 850 25.1 -5.8 21.6 61 -12.2 10
11:30 1021 30.15 850 25.1 -5.7 21.7 59 -12.5 9.4
11:35 1021 30.15 850 25.1 -5.5 22.2 58 -12.4 9.7
11:40 1021 30.15 850 25.1 -5.1 22.7 58 -12.2 10
11:45 1021 30.15 850 25.1 -4.8 23.4 55 -12.4 9.7
11:50 1021 30.15 850 25.1 -5.1 22.8 57 -12.4 9.6
11:55 1020 30.12 850 25.1 -4.9 23.2 54 -12.7 9.1
12:00 1020 30.12 850 25.1 -4.8 23.3 57 -12 10.3
12:05 1020 30.12 849 25.07 -4.8 23.3 56 -12.3 9.9
12:10 1020 30.12 849 25.07 -4.8 23.4 56 -12.3 9.8
12:15 1020 30.12 849 25.07 -4.6 23.6 56 -12.1 10.2
12:20 1020 30.12 849 25.07 -3.9 25 55 -11.8 10.8
12:25 1020 30.12 849 25.07 -3.7 25.4 54 -11.8 10.8
12:30 1020 30.12 849 25.07 -3.4 25.8 52 -11.8 10.7
12:35 1020 30.12 849 25.07 -3.7 25.3 54 -11.7 11
12:40 1020 30.12 849 25.07 -4.1 24.6 55 -11.9 10.6
12:45 1020 30.12 849 25.07 -3.9 25 56 -11.4 11.5
12:50 1020 30.12 849 25.07 -4 24.7 56 -11.5 11.3
12:55 1020 30.12 849 25.07 -3.8 25.1 55 -11.6 11.2
13:00 1020 30.12 849 25.07 -4 24.8 57 -11.4 11.6
13:05 1020 30.12 849 25.07 -4.4 24.1 58 -11.4 11.5
13:10 1020 30.12 849 25.07 -3.9 25 57 -11.2 11.9
13:15 1019 30.09 849 25.07 -4 24.7 58 -11.2 11.9
13:20 1019 30.09 849 25.07 -4.5 24 59 -11.3 11.6
13:25 1019 30.09 849 25.07 -4.7 23.5 59 -11.6 11.2
13:30 1019 30.09 848 25.04 -5.3 22.5 60 -12 10.5
13:35 1019 30.09 848 25.04 -5.8 21.6 60 -12.4 9.7
13:40 1019 30.09 848 25.04 -5.9 21.4 61 -12.3 9.8
13:45 1019 30.09 848 25.04 -5.7 21.7 60 -12.4 9.7
13:50 1019 30.09 848 25.04 -6.3 20.7 63 -12.3 9.9
13:55 1019 30.09 848 25.04 -7 19.3 64 -12.8 8.9
14:00 1019 30.09 848 25.04 -7.4 18.7 64 -13 8.6
14:05 1019 30.09 848 25.04 -7.4 18.8 65 -12.9 8.7
14:10 1019 30.09 848 25.04 -7.3 18.9 64 -13 8.5
14:15 1019 30.09 848 25.04 -7.1 19.3 62 -13.2 8.3
14:20 1019 30.09 848 25.04 -7.2 19.1 62 -13.2 8.2
14:25 1019 30.09 848 25.04 -7.5 18.4 64 -13.3 8.1
14:30 1019 30.09 848 25.04 -7.3 18.8 62 -13.4 7.9
14:35 1019 30.09 848 25.04 -7.4 18.7 65 -12.8 8.9
14:40 1019 30.09 848 25.04 -7.4 18.7 65 -12.9 8.8
14:45 1019 30.09 848 25.04 -7.3 18.8 63 -13.2 8.2
14:50 1019 30.09 848 25.04 -7.8 17.9 67 -13 8.6
14:55 1019 30.09 848 25.04 -8 17.7 66 -13.2 8.2
15:00 1019 30.09 848 25.04 -8.1 17.5 65 -13.5 7.7
15:05 1019 30.09 848 25.04 -8.3 17 66 -13.7 7.4
15:10 1019 30.09 848 25.04 -8.7 16.3 70 -13.2 8.3
15:15 1019 30.09 848 25.04 -8.8 16.1 69 -13.5 7.8
15:20 1019 30.09 848 25.04 -8.7 16.4 69 -13.5 7.7
15:25 1019 30.09 848 25.04 -8.7 16.4 70 -13.3 8.1
15:30 1019 30.09 848 25.04 -8.5 16.7 69 -13.2 8.2
15:35 1019 30.09 848 25.04 -8.5 16.7 71 -12.9 8.8
15:40 1019 30.09 848 25.04 -9.1 15.6 71 -13.4 7.8
15:45 1019 30.09 848 25.04 -9.3 15.2 72 -13.5 7.6
15:50 1019 30.09 848 25.04 -9.4 15 72 -13.6 7.4
15:55 1019 30.09 848 25.04 -9.6 14.7 75 -13.2 8.2
16:00 1019 30.09 848 25.04 -9.9 14.3 77 -13.1 8.4
16:05 1019 30.09 848 25.04 -9.9 14.1 77 -13.3 8.1
16:10 1019 30.09 848 25.04 -10.1 13.9 78 -13.2 8.2
16:15 1019 30.09 848 25.04 -10.1 13.8 79 -13.1 8.4
16:20 1019 30.09 848 25.04 -10.2 13.7 78 -13.4 7.9
16:25 1019 30.09 848 25.04 -10.1 13.8 77 -13.4 7.8
16:30 1019 30.09 848 25.04 -10.1 13.9 77 -13.4 7.8
16:35 1019 30.09 848 25.04 -10 14 77 -13.3 8
16:40 1019 30.09 848 25.04 -10 14 76 -13.5 7.7
16:45 1019 30.09 848 25.04 -10 14.1 76 -13.4 7.9
16:50 1019 30.09 848 25.04 -9.9 14.2 76 -13.3 8
16:55 1019 30.09 848 25.04 -9.8 14.5 77 -13.1 8.5
17:00 1019 30.09 848 25.04 -9.5 14.9 76 -13 8.6
17:05 1019 30.09 848 25.04 -9.4 15.1 76 -12.9 8.7
17:10 1019 30.09 848 25.04 -9.6 14.8 77 -12.9 8.8
17:15 1019 30.09 848 25.04 -9.7 14.5 78 -12.9 8.8
17:20 1019 30.09 848 25.04 -9.9 14.2 78 -13 8.6
17:25 1019 30.09 848 25.04 -10.2 13.7 78 -13.3 8.1
17:30 1019 30.09 848 25.04 -10.4 13.4 79 -13.4 8
17:35 1019 30.09 848 25.04 -10.4 13.3 78 -13.5 7.8
17:40 1019 30.09 848 25.04 -10.4 13.2 78 -13.5 7.7
17:45 1019 30.09 848 25.04 -10.4 13.4 78 -13.5 7.6
17:50 1019 30.09 848 25.04 -10.2 13.7 77 -13.4 7.8
17:55 1018 30.06 848 25.04 -10 14 76 -13.4 7.9
18:00 1018 30.06 848 25.04 -10.1 13.8 77 -13.4 8
18:05 1018 30.06 848 25.04 -10.1 13.9 77 -13.4 7.9
18:10 1018 30.06 848 25.04 -9.8 14.4 76 -13.2 8.3
18:15 1018 30.06 848 25.04 -9.5 14.9 74 -13.3 8.1
18:20 1018 30.06 848 25.04 -9.3 15.3 73 -13.2 8.2
18:25 1018 30.06 848 25.04 -9.3 15.3 74 -13.2 8.3
18:30 1018 30.06 848 25.04 -9.2 15.4 73 -13.2 8.3
18:35 1018 30.06 847 25.01 -9.1 15.5 74 -13 8.5
18:40 1018 30.06 847 25.01 -9.3 15.3 74 -13.1 8.4
18:45 1018 30.06 847 25.01 -9.4 15.2 75 -13.1 8.4
18:50 1018 30.06 847 25.01 -9.3 15.3 74 -13.1 8.5
18:55 1018 30.06 847 25.01 -9.2 15.4 74 -13.1 8.4
19:00 1018 30.06 847 25.01 -9.2 15.5 73 -13.1 8.4
19:05 1018 30.06 847 25.01 -9 15.9 72 -13.1 8.4
19:10 1018 30.06 847 25.01 -8.7 16.3 71 -13 8.5
19:15 1018 30.06 847 25.01 -8.7 16.3 72 -12.8 8.9
19:20 1018 30.06 847 25.01 -8.6 16.6 72 -12.7 9.2
19:25 1018 30.06 847 25.01 -8.5 16.8 73 -12.5 9.4
19:30 1018 30.06 847 25.01 -8.7 16.4 74 -12.5 9.4
19:35 1018 30.06 847 25.01 -8.7 16.3 73 -12.8 9
19:40 1018 30.06 847 25.01 -8.5 16.7 72 -12.6 9.3
19:45 1018 30.06 847 25.01 -8.4 17 72 -12.5 9.5
19:50 1018 30.06 847 25.01 -8.4 16.9 74 -12.3 9.9
19:55 1018 30.06 847 25.01 -8.5 16.7 73 -12.4 9.6
20:00 1018 30.06 847 25.01 -8.4 16.9 75 -12.1 10.2
20:05 1018 30.06 847 25.01 -8.5 16.6 76 -12.1 10.2
20:10 1018 30.06 847 25.01 -9 15.9 77 -12.3 9.8
20:15 1018 30.06 847 25.01 -8.8 16.1 78 -12 10.4
20:20 1018 30.06 847 25.01 -8.9 16.1 76 -12.4 9.7
20:25 1018 30.06 847 25.01 -8.8 16.2 78 -12 10.4
20:30 1017 30.03 847 25.01 -8.6 16.5 77 -11.9 10.5
20:35 1017 30.03 847 25.01 -8.6 16.6 77 -11.9 10.5
20:40 1018 30.06 847 25.01 -8.4 16.8 77 -11.7 10.9
20:45 1017 30.03 847 25.01 -8.3 17 77 -11.6 11.1
20:50 1018 30.06 847 25.01 -8.2 17.2 77 -11.5 11.2
20:55 1018 30.06 847 25.01 -8.2 17.2 78 -11.5 11.4
21:00 1018 30.06 847 25.01 -8.2 17.3 78 -11.4 11.5
21:05 1017 30.03 847 25.01 -8.2 17.2 79 -11.3 11.7
21:10 1018 30.06 847 25.01 -8.2 17.3 77 -11.5 11.2
21:15 1018 30.06 847 25.01 -8 17.6 77 -11.4 11.4
21:20 1018 30.06 847 25.01 -7.9 17.8 74 -11.7 10.9
21:25 1018 30.06 847 25.01 -8 17.7 76 -11.5 11.3
21:30 1018 30.06 847 25.01 -8 17.7 78 -11.2 11.9
21:35 1018 30.06 847 25.01 -8.1 17.4 79 -11.1 12.1
21:40 1018 30.06 847 25.01 -8.2 17.2 80 -11.1 12.1
21:45 1017 30.03 847 25.01 -8.4 17 81 -11 12.1
21:50 1017 30.03 847 25.01 -8.5 16.7 82 -11.1 12.1
21:55 1017 30.03 847 25.01 -8.6 16.5 81 -11.3 11.6
22:00 1017 30.03 847 25.01 -8.7 16.3 79 -11.8 10.8
22:05 1017 30.03 847 25.01 -8.6 16.4 77 -12 10.4
22:10 1017 30.03 847 25.01 -8.4 16.8 77 -11.8 10.8
22:15 1017 30.03 847 25.01 -8.4 16.9 76 -11.9 10.7
22:20 1017 30.03 847 25.01 -8.4 17 75 -12 10.4
22:25 1017 30.03 847 25.01 -8.3 17.1 76 -11.8 10.8
22:30 1017 30.03 846 24.98 -8.3 17.1 77 -11.6 11.1
22:35 1017 30.03 846 24.98 -8.4 16.9 77 -11.7 10.9
22:40 1017 30.03 846 24.98 -8.6 16.6 78 -11.7 11
22:45 1017 30.03 846 24.98 -8.5 16.8 78 -11.7 10.9
22:50 1017 30.03 846 24.98 -8.3 17 76 -11.9 10.6
22:55 1017 30.03 846 24.98 -8.2 17.3 76 -11.7 11
23:00 1017 30.03 846 24.98 -8.2 17.3 73 -12.2 10
23:05 1017 30.03 846 24.98 -8 17.6 73 -12 10.5
23:10 1017 30.03 846 24.98 -7.9 17.8 73 -11.9 10.5
23:15 1017 30.03 847 25.01 -7.8 18 75 -11.5 11.4
23:20 1017 30.03 847 25.01 -7.5 18.5 72 -11.8 10.7
23:25 1017 30.03 847 25.01 -7.1 19.3 68 -12 10.5
23:30 1017 30.03 847 25.01 -6.8 19.8 67 -12 10.4
23:35 1017 30.03 847 25.01 -6.7 20 67 -11.8 10.8
23:40 1017 30.03 847 25.01 -6.6 20.1 67 -11.8 10.7
23:45 1018 30.06 847 25.01 -6.7 20 68 -11.5 11.2
23:50 1018 30.06 847 25.01 -6.8 19.8 67 -11.8 10.7
23:55 1018 30.06 847 25.01 -7 19.4 67 -12 10.3
24:00 1018 30.06 847 25.01 -7.3 18.9 67 -12.4 9.7